OIZI

Details ICAO OIZI
Name IRAN SHAHR
Region Iran
Timezone Asia/Tehran (UTC+3.5)
Plans Departing 3
Arriving 10
Stats Elevation 2,040 ft / 622 m (AMSL)
Location 27.236117° 60.720039°
Runways 1
Magnetic Variation 1.948° E
Sunrise 2017-12-18 02:42:16 UTC / 2017-12-18 06:12:16 Local
Sunset 2017-12-18 13:07:44 UTC / 2017-12-18 16:37:44 Local
Advertisement - Login to hide

Runways

ID Width Length Bearing (true) Bearing (mag) Surface Threshold Offset Overrun Length
17 150 ft / 46 m 7,739 ft / 2,359 m 170.97° 169.02° Asphalt 0 ft / 0 m 190 ft / 58 m
35 150 ft / 46 m 7,739 ft / 2,359 m 350.97° 349.02° Asphalt 0 ft / 0 m 250 ft / 76 m

Map

Weather


0- 5 10 15 20 25 30 35+ Temperature / ° C

Clouds and Precipitation
Forecast for 2017-12-18 06:00 UTC. Updated 26 minutes ago

Ground ~20,000 ft ~40,000 ft Winds

METAR

OIZI 180300Z 02004KT CAVOK 13/01 Q1022

TAF

Not found

Frequencies

Tower 121.90 MHz INFO
Tower 121.70 MHz INFO
Tower 122.70 MHz INFO
Warning: Do not use this data for real-world aviation or navigation. No guarantee of current accuracy is given.